sensor_id;sensor_type;location;lat;lon;timestamp;P1;durP1;ratioP1;P2;durP2;ratioP2
29730;SDS011;16639;51.488;0.152;2024-03-07T00:00:11;94.15;;;36.90;;
29730;SDS011;16639;51.488;0.152;2024-03-07T00:02:45;95.35;;;39.40;;
29730;SDS011;16639;51.488;0.152;2024-03-07T00:05:21;77.53;;;35.47;;
29730;SDS011;16639;51.488;0.152;2024-03-07T00:07:52;79.78;;;34.47;;
29730;SDS011;16639;51.488;0.152;2024-03-07T00:10:20;88.78;;;37.17;;
29730;SDS011;16639;51.488;0.152;2024-03-07T00:12:50;90.93;;;37.95;;
29730;SDS011;16639;51.488;0.152;2024-03-07T00:15:18;89.15;;;35.92;;
29730;SDS011;16639;51.488;0.152;2024-03-07T00:17:45;91.75;;;36.58;;
29730;SDS011;16639;51.488;0.152;2024-03-07T00:20:13;85.15;;;37.92;;
29730;SDS011;16639;51.488;0.152;2024-03-07T00:22:47;86.80;;;34.33;;
29730;SDS011;16639;51.488;0.152;2024-03-07T00:25:17;79.60;;;35.92;;
29730;SDS011;16639;51.488;0.152;2024-03-07T00:27:47;82.03;;;35.45;;
29730;SDS011;16639;51.488;0.152;2024-03-07T00:30:15;89.80;;;36.97;;
29730;SDS011;16639;51.488;0.152;2024-03-07T00:32:47;70.43;;;34.35;;
29730;SDS011;16639;51.488;0.152;2024-03-07T00:35:16;83.22;;;37.67;;
29730;SDS011;16639;51.488;0.152;2024-03-07T00:37:43;84.82;;;36.70;;
29730;SDS011;16639;51.488;0.152;2024-03-07T00:40:13;90.88;;;39.70;;
29730;SDS011;16639;51.488;0.152;2024-03-07T00:42:40;90.25;;;38.70;;
29730;SDS011;16639;51.488;0.152;2024-03-07T00:45:08;90.55;;;39.80;;
29730;SDS011;16639;51.488;0.152;2024-03-07T00:47:36;81.88;;;35.60;;
29730;SDS011;16639;51.488;0.152;2024-03-07T00:50:05;91.82;;;39.65;;
29730;SDS011;16639;51.488;0.152;2024-03-07T00:52:35;109.40;;;43.80;;
29730;SDS011;16639;51.488;0.152;2024-03-07T00:55:03;93.60;;;41.35;;
29730;SDS011;16639;51.488;0.152;2024-03-07T00:57:31;85.15;;;36.75;;
29730;SDS011;16639;51.488;0.152;2024-03-07T01:00:00;86.63;;;38.17;;
29730;SDS011;16639;51.488;0.152;2024-03-07T01:02:27;82.68;;;36.05;;
29730;SDS011;16639;51.488;0.152;2024-03-07T01:04:55;91.60;;;39.38;;
29730;SDS011;16639;51.488;0.152;2024-03-07T01:07:23;95.10;;;39.22;;
29730;SDS011;16639;51.488;0.152;2024-03-07T01:09:50;96.75;;;39.47;;
29730;SDS011;16639;51.488;0.152;2024-03-07T01:12:18;96.40;;;40.05;;
29730;SDS011;16639;51.488;0.152;2024-03-07T01:14:49;95.65;;;39.97;;
29730;SDS011;16639;51.488;0.152;2024-03-07T01:17:16;96.78;;;42.88;;
29730;SDS011;16639;51.488;0.152;2024-03-07T01:19:44;97.53;;;39.47;;
29730;SDS011;16639;51.488;0.152;2024-03-07T01:22:11;114.35;;;44.35;;
29730;SDS011;16639;51.488;0.152;2024-03-07T01:24:39;100.47;;;40.80;;
29730;SDS011;16639;51.488;0.152;2024-03-07T01:27:06;108.13;;;41.67;;
29730;SDS011;16639;51.488;0.152;2024-03-07T01:29:34;89.75;;;40.22;;
29730;SDS011;16639;51.488;0.152;2024-03-07T01:32:01;99.07;;;42.40;;
29730;SDS011;16639;51.488;0.152;2024-03-07T01:34:30;95.85;;;41.38;;
29730;SDS011;16639;51.488;0.152;2024-03-07T01:36:57;104.82;;;43.38;;
29730;SDS011;16639;51.488;0.152;2024-03-07T01:39:24;112.80;;;44.03;;
29730;SDS011;16639;51.488;0.152;2024-03-07T01:41:52;103.53;;;43.03;;
29730;SDS011;16639;51.488;0.152;2024-03-07T01:44:19;100.32;;;42.22;;
29730;SDS011;16639;51.488;0.152;2024-03-07T01:46:47;92.50;;;42.25;;
29730;SDS011;16639;51.488;0.152;2024-03-07T01:49:17;96.60;;;41.95;;
29730;SDS011;16639;51.488;0.152;2024-03-07T01:51:45;94.47;;;40.20;;
29730;SDS011;16639;51.488;0.152;2024-03-07T01:54:13;107.05;;;44.25;;
29730;SDS011;16639;51.488;0.152;2024-03-07T01:56:40;105.07;;;45.22;;
29730;SDS011;16639;51.488;0.152;2024-03-07T01:59:10;103.88;;;44.92;;
29730;SDS011;16639;51.488;0.152;2024-03-07T02:01:39;99.15;;;42.03;;
29730;SDS011;16639;51.488;0.152;2024-03-07T02:04:07;99.35;;;41.22;;
29730;SDS011;16639;51.488;0.152;2024-03-07T02:06:35;101.47;;;42.80;;
29730;SDS011;16639;51.488;0.152;2024-03-07T02:09:02;102.40;;;43.70;;
29730;SDS011;16639;51.488;0.152;2024-03-07T02:11:31;105.97;;;44.55;;
29730;SDS011;16639;51.488;0.152;2024-03-07T02:13:58;105.15;;;43.90;;
29730;SDS011;16639;51.488;0.152;2024-03-07T02:16:26;105.10;;;43.40;;
29730;SDS011;16639;51.488;0.152;2024-03-07T02:18:53;108.20;;;45.22;;
29730;SDS011;16639;51.488;0.152;2024-03-07T02:21:21;115.88;;;47.58;;
29730;SDS011;16639;51.488;0.152;2024-03-07T02:23:50;106.80;;;45.60;;
29730;SDS011;16639;51.488;0.152;2024-03-07T02:26:18;105.43;;;46.20;;
29730;SDS011;16639;51.488;0.152;2024-03-07T02:28:45;112.57;;;45.90;;
29730;SDS011;16639;51.488;0.152;2024-03-07T02:31:13;95.10;;;43.65;;
29730;SDS011;16639;51.488;0.152;2024-03-07T02:33:40;95.35;;;47.03;;
29730;SDS011;16639;51.488;0.152;2024-03-07T02:36:08;85.97;;;41.75;;
29730;SDS011;16639;51.488;0.152;2024-03-07T02:38:36;87.50;;;40.30;;
29730;SDS011;16639;51.488;0.152;2024-03-07T02:41:04;88.10;;;41.50;;
29730;SDS011;16639;51.488;0.152;2024-03-07T02:43:31;89.28;;;41.38;;
29730;SDS011;16639;51.488;0.152;2024-03-07T02:45:59;89.25;;;41.92;;
29730;SDS011;16639;51.488;0.152;2024-03-07T02:48:26;92.85;;;42.25;;
29730;SDS011;16639;51.488;0.152;2024-03-07T02:50:54;85.47;;;43.03;;
29730;SDS011;16639;51.488;0.152;2024-03-07T02:53:21;86.47;;;42.33;;
29730;SDS011;16639;51.488;0.152;2024-03-07T02:55:49;87.10;;;39.72;;
29730;SDS011;16639;51.488;0.152;2024-03-07T02:58:16;85.47;;;38.40;;
29730;SDS011;16639;51.488;0.152;2024-03-07T03:00:45;80.32;;;38.30;;
29730;SDS011;16639;51.488;0.152;2024-03-07T03:03:12;79.63;;;37.72;;
29730;SDS011;16639;51.488;0.152;2024-03-07T03:05:40;78.45;;;36.65;;
29730;SDS011;16639;51.488;0.152;2024-03-07T03:08:07;80.82;;;38.88;;
29730;SDS011;16639;51.488;0.152;2024-03-07T03:10:34;71.85;;;35.38;;
29730;SDS011;16639;51.488;0.152;2024-03-07T03:13:03;75.75;;;36.67;;
29730;SDS011;16639;51.488;0.152;2024-03-07T03:15:30;83.72;;;39.75;;
29730;SDS011;16639;51.488;0.152;2024-03-07T03:17:58;85.00;;;40.35;;
29730;SDS011;16639;51.488;0.152;2024-03-07T03:20:30;72.88;;;35.75;;
29730;SDS011;16639;51.488;0.152;2024-03-07T03:23:01;78.00;;;38.10;;
29730;SDS011;16639;51.488;0.152;2024-03-07T03:25:45;74.47;;;36.65;;
29730;SDS011;16639;51.488;0.152;2024-03-07T03:28:15;73.13;;;35.45;;
29730;SDS011;16639;51.488;0.152;2024-03-07T03:30:46;65.03;;;33.20;;
29730;SDS011;16639;51.488;0.152;2024-03-07T03:33:14;68.47;;;34.03;;
29730;SDS011;16639;51.488;0.152;2024-03-07T03:35:42;78.13;;;35.67;;
29730;SDS011;16639;51.488;0.152;2024-03-07T03:38:10;70.15;;;35.95;;
29730;SDS011;16639;51.488;0.152;2024-03-07T03:40:37;84.90;;;41.47;;
29730;SDS011;16639;51.488;0.152;2024-03-07T03:43:05;81.50;;;39.15;;
29730;SDS011;16639;51.488;0.152;2024-03-07T03:45:32;83.22;;;40.58;;
29730;SDS011;16639;51.488;0.152;2024-03-07T03:48:01;82.82;;;41.20;;
29730;SDS011;16639;51.488;0.152;2024-03-07T03:50:29;79.72;;;36.78;;
29730;SDS011;16639;51.488;0.152;2024-03-07T03:52:58;83.53;;;39.00;;
29730;SDS011;16639;51.488;0.152;2024-03-07T03:55:28;80.20;;;37.17;;
29730;SDS011;16639;51.488;0.152;2024-03-07T03:57:55;85.55;;;41.05;;
29730;SDS011;16639;51.488;0.152;2024-03-07T04:00:23;79.05;;;40.72;;
29730;SDS011;16639;51.488;0.152;2024-03-07T04:02:51;74.13;;;37.60;;
29730;SDS011;16639;51.488;0.152;2024-03-07T04:05:19;84.45;;;40.63;;
29730;SDS011;16639;51.488;0.152;2024-03-07T04:07:48;94.88;;;40.10;;
29730;SDS011;16639;51.488;0.152;2024-03-07T04:10:16;82.45;;;39.95;;
29730;SDS011;16639;51.488;0.152;2024-03-07T04:12:45;141.90;;;45.88;;
29730;SDS011;16639;51.488;0.152;2024-03-07T04:15:13;84.20;;;38.33;;
29730;SDS011;16639;51.488;0.152;2024-03-07T04:17:45;91.15;;;42.58;;
29730;SDS011;16639;51.488;0.152;2024-03-07T04:20:15;84.68;;;40.72;;
29730;SDS011;16639;51.488;0.152;2024-03-07T04:22:46;91.40;;;41.60;;
29730;SDS011;16639;51.488;0.152;2024-03-07T04:25:16;94.07;;;41.42;;
29730;SDS011;16639;51.488;0.152;2024-03-07T04:27:44;100.35;;;44.22;;
29730;SDS011;16639;51.488;0.152;2024-03-07T04:30:12;98.53;;;43.58;;
29730;SDS011;16639;51.488;0.152;2024-03-07T04:32:42;97.15;;;43.80;;
29730;SDS011;16639;51.488;0.152;2024-03-07T04:35:10;83.82;;;41.42;;
29730;SDS011;16639;51.488;0.152;2024-03-07T04:37:41;97.70;;;43.70;;
29730;SDS011;16639;51.488;0.152;2024-03-07T04:40:09;95.80;;;46.78;;
29730;SDS011;16639;51.488;0.152;2024-03-07T04:42:48;102.05;;;48.15;;
29730;SDS011;16639;51.488;0.152;2024-03-07T04:45:19;104.57;;;49.42;;
29730;SDS011;16639;51.488;0.152;2024-03-07T04:47:48;97.03;;;43.42;;
29730;SDS011;16639;51.488;0.152;2024-03-07T04:50:17;105.25;;;46.13;;
29730;SDS011;16639;51.488;0.152;2024-03-07T04:52:46;108.75;;;47.13;;
29730;SDS011;16639;51.488;0.152;2024-03-07T04:55:15;91.45;;;44.83;;
29730;SDS011;16639;51.488;0.152;2024-03-07T04:57:43;87.18;;;42.63;;
29730;SDS011;16639;51.488;0.152;2024-03-07T05:00:11;89.80;;;41.25;;
29730;SDS011;16639;51.488;0.152;2024-03-07T05:02:48;89.88;;;41.67;;
29730;SDS011;16639;51.488;0.152;2024-03-07T05:05:19;80.18;;;37.67;;
29730;SDS011;16639;51.488;0.152;2024-03-07T05:07:53;79.65;;;38.67;;
29730;SDS011;16639;51.488;0.152;2024-03-07T05:10:22;83.10;;;38.53;;
29730;SDS011;16639;51.488;0.152;2024-03-07T05:12:50;82.07;;;41.00;;
29730;SDS011;16639;51.488;0.152;2024-03-07T05:15:17;76.22;;;35.60;;
29730;SDS011;16639;51.488;0.152;2024-03-07T05:17:45;87.50;;;41.63;;
29730;SDS011;16639;51.488;0.152;2024-03-07T05:20:12;66.55;;;36.35;;
29730;SDS011;16639;51.488;0.152;2024-03-07T05:22:40;73.75;;;35.75;;
29730;SDS011;16639;51.488;0.152;2024-03-07T05:25:14;66.85;;;35.38;;
29730;SDS011;16639;51.488;0.152;2024-03-07T05:27:43;70.30;;;34.53;;
29730;SDS011;16639;51.488;0.152;2024-03-07T05:30:11;67.57;;;34.28;;
29730;SDS011;16639;51.488;0.152;2024-03-07T05:32:40;76.82;;;36.92;;
29730;SDS011;16639;51.488;0.152;2024-03-07T05:35:08;67.13;;;34.13;;
29730;SDS011;16639;51.488;0.152;2024-03-07T05:37:38;75.18;;;37.58;;
29730;SDS011;16639;51.488;0.152;2024-03-07T05:40:09;65.85;;;33.85;;
29730;SDS011;16639;51.488;0.152;2024-03-07T05:42:36;74.25;;;36.70;;
29730;SDS011;16639;51.488;0.152;2024-03-07T05:45:04;66.18;;;37.05;;
29730;SDS011;16639;51.488;0.152;2024-03-07T05:47:34;72.43;;;36.30;;
29730;SDS011;16639;51.488;0.152;2024-03-07T05:50:02;73.75;;;36.53;;
29730;SDS011;16639;51.488;0.152;2024-03-07T05:52:30;79.03;;;40.08;;
29730;SDS011;16639;51.488;0.152;2024-03-07T05:54:58;83.88;;;39.33;;
29730;SDS011;16639;51.488;0.152;2024-03-07T05:57:26;78.10;;;38.65;;
29730;SDS011;16639;51.488;0.152;2024-03-07T05:59:53;78.70;;;38.15;;
29730;SDS011;16639;51.488;0.152;2024-03-07T06:02:21;82.60;;;40.70;;
29730;SDS011;16639;51.488;0.152;2024-03-07T06:04:48;91.45;;;40.53;;
29730;SDS011;16639;51.488;0.152;2024-03-07T06:07:16;89.38;;;41.58;;
29730;SDS011;16639;51.488;0.152;2024-03-07T06:09:43;94.95;;;41.47;;
29730;SDS011;16639;51.488;0.152;2024-03-07T06:12:11;86.35;;;42.78;;
29730;SDS011;16639;51.488;0.152;2024-03-07T06:14:52;98.68;;;44.13;;
29730;SDS011;16639;51.488;0.152;2024-03-07T06:17:19;93.93;;;46.30;;
29730;SDS011;16639;51.488;0.152;2024-03-07T06:19:50;91.43;;;43.33;;
29730;SDS011;16639;51.488;0.152;2024-03-07T06:22:18;99.82;;;48.90;;
29730;SDS011;16639;51.488;0.152;2024-03-07T06:24:45;104.32;;;49.58;;
29730;SDS011;16639;51.488;0.152;2024-03-07T06:27:14;93.55;;;48.25;;
29730;SDS011;16639;51.488;0.152;2024-03-07T06:29:54;91.43;;;46.92;;
29730;SDS011;16639;51.488;0.152;2024-03-07T06:32:22;109.07;;;50.47;;
29730;SDS011;16639;51.488;0.152;2024-03-07T06:34:50;102.35;;;48.22;;
29730;SDS011;16639;51.488;0.152;2024-03-07T06:37:17;101.75;;;48.03;;
29730;SDS011;16639;51.488;0.152;2024-03-07T06:39:46;100.47;;;47.80;;
29730;SDS011;16639;51.488;0.152;2024-03-07T06:42:13;95.60;;;45.60;;
29730;SDS011;16639;51.488;0.152;2024-03-07T06:44:43;107.95;;;51.92;;
29730;SDS011;16639;51.488;0.152;2024-03-07T06:47:10;124.93;;;53.30;;
29730;SDS011;16639;51.488;0.152;2024-03-07T06:49:38;110.28;;;54.30;;
29730;SDS011;16639;51.488;0.152;2024-03-07T06:52:06;97.13;;;51.08;;
29730;SDS011;16639;51.488;0.152;2024-03-07T06:54:35;115.68;;;54.72;;
29730;SDS011;16639;51.488;0.152;2024-03-07T06:57:03;118.47;;;54.55;;
29730;SDS011;16639;51.488;0.152;2024-03-07T06:59:31;118.15;;;53.97;;
29730;SDS011;16639;51.488;0.152;2024-03-07T07:01:59;106.32;;;53.03;;
29730;SDS011;16639;51.488;0.152;2024-03-07T07:04:26;122.50;;;57.35;;
29730;SDS011;16639;51.488;0.152;2024-03-07T07:06:59;108.47;;;53.50;;
29730;SDS011;16639;51.488;0.152;2024-03-07T07:09:28;123.15;;;56.25;;
29730;SDS011;16639;51.488;0.152;2024-03-07T07:11:55;112.43;;;54.72;;
29730;SDS011;16639;51.488;0.152;2024-03-07T07:14:23;122.43;;;60.60;;
29730;SDS011;16639;51.488;0.152;2024-03-07T07:16:50;103.88;;;51.78;;
29730;SDS011;16639;51.488;0.152;2024-03-07T07:19:19;119.80;;;56.83;;
29730;SDS011;16639;51.488;0.152;2024-03-07T07:21:47;122.18;;;57.95;;
29730;SDS011;16639;51.488;0.152;2024-03-07T07:24:20;116.72;;;55.95;;
29730;SDS011;16639;51.488;0.152;2024-03-07T07:26:50;122.32;;;55.20;;
29730;SDS011;16639;51.488;0.152;2024-03-07T07:29:18;118.57;;;56.10;;
29730;SDS011;16639;51.488;0.152;2024-03-07T07:31:46;124.78;;;57.17;;
29730;SDS011;16639;51.488;0.152;2024-03-07T07:34:13;121.82;;;54.95;;
29730;SDS011;16639;51.488;0.152;2024-03-07T07:36:41;119.47;;;53.97;;
29730;SDS011;16639;51.488;0.152;2024-03-07T07:39:08;124.68;;;55.28;;
29730;SDS011;16639;51.488;0.152;2024-03-07T07:44:12;116.15;;;53.60;;
29730;SDS011;16639;51.488;0.152;2024-03-07T07:46:40;128.65;;;57.17;;
29730;SDS011;16639;51.488;0.152;2024-03-07T07:49:08;130.02;;;59.05;;
29730;SDS011;16639;51.488;0.152;2024-03-07T07:51:36;126.40;;;57.97;;
29730;SDS011;16639;51.488;0.152;2024-03-07T07:54:03;128.93;;;57.67;;
29730;SDS011;16639;51.488;0.152;2024-03-07T07:56:31;165.65;;;64.90;;
29730;SDS011;16639;51.488;0.152;2024-03-07T07:58:59;129.80;;;61.33;;
29730;SDS011;16639;51.488;0.152;2024-03-07T08:01:26;128.07;;;60.05;;
29730;SDS011;16639;51.488;0.152;2024-03-07T08:03:54;131.95;;;59.13;;
29730;SDS011;16639;51.488;0.152;2024-03-07T08:06:22;135.23;;;60.00;;
29730;SDS011;16639;51.488;0.152;2024-03-07T08:08:50;125.78;;;59.60;;
29730;SDS011;16639;51.488;0.152;2024-03-07T08:11:18;128.77;;;56.83;;
29730;SDS011;16639;51.488;0.152;2024-03-07T08:13:46;130.25;;;58.10;;
29730;SDS011;16639;51.488;0.152;2024-03-07T08:16:16;119.85;;;56.15;;
29730;SDS011;16639;51.488;0.152;2024-03-07T08:18:43;141.93;;;62.35;;
29730;SDS011;16639;51.488;0.152;2024-03-07T08:21:11;125.65;;;60.97;;
29730;SDS011;16639;51.488;0.152;2024-03-07T08:23:38;134.45;;;60.03;;
29730;SDS011;16639;51.488;0.152;2024-03-07T08:26:06;135.68;;;61.28;;
29730;SDS011;16639;51.488;0.152;2024-03-07T08:28:34;132.35;;;63.63;;
29730;SDS011;16639;51.488;0.152;2024-03-07T08:31:01;131.68;;;59.00;;
29730;SDS011;16639;51.488;0.152;2024-03-07T08:33:29;134.50;;;59.58;;
29730;SDS011;16639;51.488;0.152;2024-03-07T08:36:01;124.05;;;57.72;;
29730;SDS011;16639;51.488;0.152;2024-03-07T08:38:29;124.65;;;58.58;;
29730;SDS011;16639;51.488;0.152;2024-03-07T08:40:56;132.00;;;58.92;;
29730;SDS011;16639;51.488;0.152;2024-03-07T08:43:24;129.20;;;59.75;;
29730;SDS011;16639;51.488;0.152;2024-03-07T08:45:51;133.90;;;60.35;;
29730;SDS011;16639;51.488;0.152;2024-03-07T08:48:19;139.07;;;63.08;;
29730;SDS011;16639;51.488;0.152;2024-03-07T08:50:47;137.98;;;60.60;;
29730;SDS011;16639;51.488;0.152;2024-03-07T08:53:14;145.38;;;63.15;;
29730;SDS011;16639;51.488;0.152;2024-03-07T08:55:42;138.10;;;59.75;;
29730;SDS011;16639;51.488;0.152;2024-03-07T08:58:09;138.30;;;61.78;;
29730;SDS011;16639;51.488;0.152;2024-03-07T09:00:37;143.73;;;62.10;;
29730;SDS011;16639;51.488;0.152;2024-03-07T09:03:06;133.15;;;61.67;;
29730;SDS011;16639;51.488;0.152;2024-03-07T09:05:39;135.00;;;58.20;;
29730;SDS011;16639;51.488;0.152;2024-03-07T09:08:07;134.93;;;62.40;;
29730;SDS011;16639;51.488;0.152;2024-03-07T09:10:35;128.13;;;59.17;;
29730;SDS011;16639;51.488;0.152;2024-03-07T09:13:03;124.00;;;57.85;;
29730;SDS011;16639;51.488;0.152;2024-03-07T09:15:32;117.80;;;54.28;;
29730;SDS011;16639;51.488;0.152;2024-03-07T09:18:00;117.53;;;59.42;;
29730;SDS011;16639;51.488;0.152;2024-03-07T09:20:31;140.48;;;61.55;;
29730;SDS011;16639;51.488;0.152;2024-03-07T09:22:58;122.20;;;57.20;;
29730;SDS011;16639;51.488;0.152;2024-03-07T09:25:27;117.28;;;59.30;;
29730;SDS011;16639;51.488;0.152;2024-03-07T09:27:54;115.70;;;52.40;;
29730;SDS011;16639;51.488;0.152;2024-03-07T09:30:22;115.32;;;55.65;;
29730;SDS011;16639;51.488;0.152;2024-03-07T09:32:54;119.75;;;58.10;;
29730;SDS011;16639;51.488;0.152;2024-03-07T09:35:22;120.45;;;56.83;;
29730;SDS011;16639;51.488;0.152;2024-03-07T09:37:50;121.82;;;58.58;;
29730;SDS011;16639;51.488;0.152;2024-03-07T09:40:17;133.57;;;61.95;;
29730;SDS011;16639;51.488;0.152;2024-03-07T09:42:45;130.85;;;61.05;;
29730;SDS011;16639;51.488;0.152;2024-03-07T09:45:22;135.02;;;63.90;;
29730;SDS011;16639;51.488;0.152;2024-03-07T09:47:54;130.43;;;60.95;;
29730;SDS011;16639;51.488;0.152;2024-03-07T09:50:26;120.57;;;58.15;;
29730;SDS011;16639;51.488;0.152;2024-03-07T09:52:55;127.82;;;63.03;;
29730;SDS011;16639;51.488;0.152;2024-03-07T09:55:25;132.23;;;62.45;;
29730;SDS011;16639;51.488;0.152;2024-03-07T09:57:54;135.73;;;61.83;;
29730;SDS011;16639;51.488;0.152;2024-03-07T10:00:24;146.55;;;66.85;;
29730;SDS011;16639;51.488;0.152;2024-03-07T10:02:58;142.82;;;64.13;;
29730;SDS011;16639;51.488;0.152;2024-03-07T10:05:29;140.25;;;65.03;;
29730;SDS011;16639;51.488;0.152;2024-03-07T10:07:58;142.20;;;64.03;;
29730;SDS011;16639;51.488;0.152;2024-03-07T10:10:27;143.77;;;64.88;;
29730;SDS011;16639;51.488;0.152;2024-03-07T10:12:57;124.55;;;60.72;;
29730;SDS011;16639;51.488;0.152;2024-03-07T10:15:31;132.23;;;61.85;;
29730;SDS011;16639;51.488;0.152;2024-03-07T10:18:00;138.52;;;65.50;;
29730;SDS011;16639;51.488;0.152;2024-03-07T10:20:28;135.45;;;66.85;;
29730;SDS011;16639;51.488;0.152;2024-03-07T10:22:56;147.68;;;64.47;;
29730;SDS011;16639;51.488;0.152;2024-03-07T10:25:24;134.55;;;63.53;;
29730;SDS011;16639;51.488;0.152;2024-03-07T10:27:56;145.80;;;69.05;;
29730;SDS011;16639;51.488;0.152;2024-03-07T10:30:28;143.15;;;68.07;;
29730;SDS011;16639;51.488;0.152;2024-03-07T10:32:58;147.48;;;67.10;;
29730;SDS011;16639;51.488;0.152;2024-03-07T10:35:28;143.15;;;66.18;;
29730;SDS011;16639;51.488;0.152;2024-03-07T10:37:58;129.13;;;63.30;;
29730;SDS011;16639;51.488;0.152;2024-03-07T10:40:33;130.85;;;63.55;;
29730;SDS011;16639;51.488;0.152;2024-03-07T10:43:11;133.30;;;63.17;;
29730;SDS011;16639;51.488;0.152;2024-03-07T10:48:19;113.03;;;55.47;;
29730;SDS011;16639;51.488;0.152;2024-03-07T10:50:54;114.70;;;52.67;;
29730;SDS011;16639;51.488;0.152;2024-03-07T10:53:46;99.47;;;47.97;;
29730;SDS011;16639;51.488;0.152;2024-03-07T10:56:53;103.63;;;50.45;;
29730;SDS011;16639;51.488;0.152;2024-03-07T10:59:32;101.95;;;49.53;;
29730;SDS011;16639;51.488;0.152;2024-03-07T11:02:15;94.10;;;47.53;;
29730;SDS011;16639;51.488;0.152;2024-03-07T11:04:57;86.53;;;47.38;;
29730;SDS011;16639;51.488;0.152;2024-03-07T11:07:26;83.10;;;43.45;;
29730;SDS011;16639;51.488;0.152;2024-03-07T11:09:57;95.68;;;46.50;;
29730;SDS011;16639;51.488;0.152;2024-03-07T11:12:26;90.70;;;47.25;;
29730;SDS011;16639;51.488;0.152;2024-03-07T11:14:55;89.30;;;43.95;;
29730;SDS011;16639;51.488;0.152;2024-03-07T11:17:24;91.95;;;45.95;;
29730;SDS011;16639;51.488;0.152;2024-03-07T11:19:53;92.25;;;46.30;;
29730;SDS011;16639;51.488;0.152;2024-03-07T11:22:30;84.75;;;43.20;;
29730;SDS011;16639;51.488;0.152;2024-03-07T11:25:02;88.60;;;45.78;;
29730;SDS011;16639;51.488;0.152;2024-03-07T11:27:37;92.38;;;43.45;;
29730;SDS011;16639;51.488;0.152;2024-03-07T11:30:06;86.93;;;44.22;;
29730;SDS011;16639;51.488;0.152;2024-03-07T11:32:37;89.07;;;43.45;;
29730;SDS011;16639;51.488;0.152;2024-03-07T11:35:06;88.90;;;42.60;;
29730;SDS011;16639;51.488;0.152;2024-03-07T11:37:44;82.57;;;41.05;;
29730;SDS011;16639;51.488;0.152;2024-03-07T11:42:52;77.38;;;40.13;;
29730;SDS011;16639;51.488;0.152;2024-03-07T11:45:21;82.68;;;40.13;;
29730;SDS011;16639;51.488;0.152;2024-03-07T11:47:57;75.00;;;37.72;;
29730;SDS011;16639;51.488;0.152;2024-03-07T11:50:39;66.03;;;37.22;;
29730;SDS011;16639;51.488;0.152;2024-03-07T11:53:08;76.03;;;37.58;;
29730;SDS011;16639;51.488;0.152;2024-03-07T11:55:36;65.78;;;34.20;;
29730;SDS011;16639;51.488;0.152;2024-03-07T11:58:14;56.22;;;30.85;;
29730;SDS011;16639;51.488;0.152;2024-03-07T12:00:44;68.22;;;32.67;;
29730;SDS011;16639;51.488;0.152;2024-03-07T12:03:13;55.90;;;29.33;;
29730;SDS011;16639;51.488;0.152;2024-03-07T12:06:02;51.75;;;28.25;;
29730;SDS011;16639;51.488;0.152;2024-03-07T12:08:30;54.92;;;26.67;;
29730;SDS011;16639;51.488;0.152;2024-03-07T12:10:58;54.08;;;26.73;;
29730;SDS011;16639;51.488;0.152;2024-03-07T12:13:26;48.03;;;25.75;;
29730;SDS011;16639;51.488;0.152;2024-03-07T12:15:55;47.90;;;25.45;;
29730;SDS011;16639;51.488;0.152;2024-03-07T12:18:26;50.22;;;25.80;;
29730;SDS011;16639;51.488;0.152;2024-03-07T12:20:56;51.05;;;25.90;;
29730;SDS011;16639;51.488;0.152;2024-03-07T12:23:26;49.72;;;26.38;;
29730;SDS011;16639;51.488;0.152;2024-03-07T12:26:00;64.53;;;28.63;;
29730;SDS011;16639;51.488;0.152;2024-03-07T12:28:29;54.05;;;25.60;;
29730;SDS011;16639;51.488;0.152;2024-03-07T12:31:06;49.00;;;24.70;;
29730;SDS011;16639;51.488;0.152;2024-03-07T12:33:43;53.63;;;27.48;;
29730;SDS011;16639;51.488;0.152;2024-03-07T12:36:16;48.47;;;24.75;;
29730;SDS011;16639;51.488;0.152;2024-03-07T12:38:44;58.13;;;26.20;;
29730;SDS011;16639;51.488;0.152;2024-03-07T12:41:13;46.63;;;25.42;;
29730;SDS011;16639;51.488;0.152;2024-03-07T12:43:43;55.03;;;24.58;;
29730;SDS011;16639;51.488;0.152;2024-03-07T12:46:13;48.70;;;25.50;;
29730;SDS011;16639;51.488;0.152;2024-03-07T12:48:43;50.08;;;25.45;;
29730;SDS011;16639;51.488;0.152;2024-03-07T12:51:14;61.25;;;26.80;;
29730;SDS011;16639;51.488;0.152;2024-03-07T12:53:46;51.35;;;25.50;;
29730;SDS011;16639;51.488;0.152;2024-03-07T12:56:15;59.38;;;27.15;;
29730;SDS011;16639;51.488;0.152;2024-03-07T12:58:46;55.70;;;26.52;;
29730;SDS011;16639;51.488;0.152;2024-03-07T13:01:17;55.00;;;26.08;;
29730;SDS011;16639;51.488;0.152;2024-03-07T13:03:46;50.90;;;25.58;;
29730;SDS011;16639;51.488;0.152;2024-03-07T13:06:15;44.08;;;24.52;;
29730;SDS011;16639;51.488;0.152;2024-03-07T13:08:52;45.85;;;25.95;;
29730;SDS011;16639;51.488;0.152;2024-03-07T13:11:23;57.63;;;28.00;;
29730;SDS011;16639;51.488;0.152;2024-03-07T13:13:57;56.63;;;29.10;;
29730;SDS011;16639;51.488;0.152;2024-03-07T13:16:25;49.35;;;26.00;;
29730;SDS011;16639;51.488;0.152;2024-03-07T13:18:58;47.50;;;27.23;;
29730;SDS011;16639;51.488;0.152;2024-03-07T13:21:27;58.40;;;28.98;;
29730;SDS011;16639;51.488;0.152;2024-03-07T13:23:54;56.42;;;29.33;;
29730;SDS011;16639;51.488;0.152;2024-03-07T13:26:24;58.95;;;30.13;;
29730;SDS011;16639;51.488;0.152;2024-03-07T13:28:53;57.80;;;28.58;;
29730;SDS011;16639;51.488;0.152;2024-03-07T13:31:21;55.75;;;27.80;;
29730;SDS011;16639;51.488;0.152;2024-03-07T13:33:49;58.15;;;28.00;;
29730;SDS011;16639;51.488;0.152;2024-03-07T13:36:18;52.13;;;28.55;;
29730;SDS011;16639;51.488;0.152;2024-03-07T13:38:51;56.38;;;28.45;;
29730;SDS011;16639;51.488;0.152;2024-03-07T13:41:22;52.88;;;28.60;;
29730;SDS011;16639;51.488;0.152;2024-03-07T13:43:52;56.20;;;28.50;;
29730;SDS011;16639;51.488;0.152;2024-03-07T13:46:20;55.38;;;28.25;;
29730;SDS011;16639;51.488;0.152;2024-03-07T13:48:48;57.70;;;28.27;;
29730;SDS011;16639;51.488;0.152;2024-03-07T13:51:18;55.38;;;28.30;;
29730;SDS011;16639;51.488;0.152;2024-03-07T13:53:47;60.72;;;29.27;;
29730;SDS011;16639;51.488;0.152;2024-03-07T13:56:28;61.17;;;30.63;;
29730;SDS011;16639;51.488;0.152;2024-03-07T13:59:25;60.90;;;31.60;;
29730;SDS011;16639;51.488;0.152;2024-03-07T14:02:17;62.85;;;32.25;;
29730;SDS011;16639;51.488;0.152;2024-03-07T14:05:24;68.28;;;32.47;;
29730;SDS011;16639;51.488;0.152;2024-03-07T14:11:01;75.68;;;34.35;;
29730;SDS011;16639;51.488;0.152;2024-03-07T14:19:26;75.68;;;37.67;;
29730;SDS011;16639;51.488;0.152;2024-03-07T14:22:28;77.22;;;37.63;;
29730;SDS011;16639;51.488;0.152;2024-03-07T14:28:05;70.28;;;37.38;;
29730;SDS011;16639;51.488;0.152;2024-03-07T14:30:55;75.72;;;39.47;;
29730;SDS011;16639;51.488;0.152;2024-03-07T14:33:32;73.80;;;37.25;;
29730;SDS011;16639;51.488;0.152;2024-03-07T14:36:16;76.93;;;38.80;;
29730;SDS011;16639;51.488;0.152;2024-03-07T14:38:53;82.28;;;38.83;;
29730;SDS011;16639;51.488;0.152;2024-03-07T14:41:37;67.75;;;38.28;;
29730;SDS011;16639;51.488;0.152;2024-03-07T14:44:12;76.68;;;39.15;;
29730;SDS011;16639;51.488;0.152;2024-03-07T14:46:44;75.82;;;39.80;;
29730;SDS011;16639;51.488;0.152;2024-03-07T14:49:16;76.18;;;40.75;;
29730;SDS011;16639;51.488;0.152;2024-03-07T14:51:44;75.28;;;40.50;;